sensor_id;sensor_type;location;lat;lon;timestamp;P1;durP1;ratioP1;P2;durP2;ratioP2
60722;SDS011;46574;52.818;6.516;2023-08-07T00:00:40;10.00;;;7.70;;
60722;SDS011;46574;52.818;6.516;2023-08-07T00:03:06;8.23;;;7.05;;
60722;SDS011;46574;52.818;6.516;2023-08-07T00:05:32;8.68;;;7.78;;
60722;SDS011;46574;52.818;6.516;2023-08-07T00:07:58;7.88;;;6.72;;
60722;SDS011;46574;52.818;6.516;2023-08-07T00:10:23;6.47;;;5.68;;
60722;SDS011;46574;52.818;6.516;2023-08-07T00:12:49;6.93;;;6.22;;
60722;SDS011;46574;52.818;6.516;2023-08-07T00:15:15;9.23;;;7.22;;
60722;SDS011;46574;52.818;6.516;2023-08-07T00:17:41;7.13;;;6.43;;
60722;SDS011;46574;52.818;6.516;2023-08-07T00:20:07;7.05;;;5.78;;
60722;SDS011;46574;52.818;6.516;2023-08-07T00:22:33;6.32;;;5.72;;
60722;SDS011;46574;52.818;6.516;2023-08-07T00:24:59;7.80;;;6.28;;
60722;SDS011;46574;52.818;6.516;2023-08-07T00:27:24;8.50;;;5.88;;
60722;SDS011;46574;52.818;6.516;2023-08-07T00:29:50;5.88;;;5.00;;
60722;SDS011;46574;52.818;6.516;2023-08-07T00:32:16;7.57;;;4.55;;
60722;SDS011;46574;52.818;6.516;2023-08-07T00:34:42;7.20;;;5.32;;
60722;SDS011;46574;52.818;6.516;2023-08-07T00:37:08;7.75;;;5.60;;
60722;SDS011;46574;52.818;6.516;2023-08-07T00:39:33;7.38;;;5.68;;
60722;SDS011;46574;52.818;6.516;2023-08-07T00:41:59;6.05;;;4.68;;
60722;SDS011;46574;52.818;6.516;2023-08-07T00:44:25;6.70;;;5.25;;
60722;SDS011;46574;52.818;6.516;2023-08-07T00:46:51;6.65;;;4.95;;
60722;SDS011;46574;52.818;6.516;2023-08-07T00:49:16;5.43;;;4.10;;
60722;SDS011;46574;52.818;6.516;2023-08-07T00:51:43;5.97;;;4.43;;
60722;SDS011;46574;52.818;6.516;2023-08-07T00:54:10;6.03;;;5.28;;
60722;SDS011;46574;52.818;6.516;2023-08-07T00:56:39;8.27;;;4.65;;
60722;SDS011;46574;52.818;6.516;2023-08-07T00:59:05;6.25;;;4.80;;
60722;SDS011;46574;52.818;6.516;2023-08-07T01:01:31;5.05;;;4.18;;
60722;SDS011;46574;52.818;6.516;2023-08-07T01:03:57;6.43;;;4.90;;
60722;SDS011;46574;52.818;6.516;2023-08-07T01:06:22;6.75;;;4.95;;
60722;SDS011;46574;52.818;6.516;2023-08-07T01:08:48;7.55;;;5.35;;
60722;SDS011;46574;52.818;6.516;2023-08-07T01:14:13;6.25;;;5.55;;
60722;SDS011;46574;52.818;6.516;2023-08-07T01:16:52;7.90;;;5.10;;
60722;SDS011;46574;52.818;6.516;2023-08-07T01:19:30;6.80;;;4.90;;
60722;SDS011;46574;52.818;6.516;2023-08-07T01:22:15;7.40;;;4.80;;
60722;SDS011;46574;52.818;6.516;2023-08-07T01:24:42;7.70;;;4.78;;
60722;SDS011;46574;52.818;6.516;2023-08-07T01:30:02;5.55;;;4.13;;
60722;SDS011;46574;52.818;6.516;2023-08-07T01:35:41;9.32;;;4.82;;
60722;SDS011;46574;52.818;6.516;2023-08-07T01:38:09;9.70;;;3.90;;
60722;SDS011;46574;52.818;6.516;2023-08-07T01:40:36;7.28;;;3.40;;
60722;SDS011;46574;52.818;6.516;2023-08-07T01:43:04;8.93;;;3.50;;
60722;SDS011;46574;52.818;6.516;2023-08-07T01:45:30;4.75;;;3.38;;
60722;SDS011;46574;52.818;6.516;2023-08-07T01:47:55;5.50;;;3.83;;
60722;SDS011;46574;52.818;6.516;2023-08-07T01:50:22;6.82;;;3.17;;
60722;SDS011;46574;52.818;6.516;2023-08-07T01:52:48;6.53;;;3.22;;
60722;SDS011;46574;52.818;6.516;2023-08-07T01:55:16;5.57;;;3.30;;
60722;SDS011;46574;52.818;6.516;2023-08-07T01:57:43;6.43;;;3.10;;
60722;SDS011;46574;52.818;6.516;2023-08-07T02:00:09;6.70;;;3.33;;
60722;SDS011;46574;52.818;6.516;2023-08-07T02:02:35;6.05;;;3.00;;
60722;SDS011;46574;52.818;6.516;2023-08-07T02:05:02;8.45;;;3.22;;
60722;SDS011;46574;52.818;6.516;2023-08-07T02:07:28;6.78;;;3.20;;
60722;SDS011;46574;52.818;6.516;2023-08-07T02:09:54;7.05;;;3.53;;
60722;SDS011;46574;52.818;6.516;2023-08-07T02:12:19;6.68;;;3.22;;
60722;SDS011;46574;52.818;6.516;2023-08-07T02:14:45;4.78;;;2.70;;
60722;SDS011;46574;52.818;6.516;2023-08-07T02:17:10;6.88;;;3.70;;
60722;SDS011;46574;52.818;6.516;2023-08-07T02:19:36;7.95;;;2.92;;
60722;SDS011;46574;52.818;6.516;2023-08-07T02:22:02;6.25;;;3.28;;
60722;SDS011;46574;52.818;6.516;2023-08-07T02:24:28;9.98;;;2.60;;
60722;SDS011;46574;52.818;6.516;2023-08-07T02:26:54;8.07;;;2.78;;
60722;SDS011;46574;52.818;6.516;2023-08-07T02:29:20;6.75;;;2.55;;
60722;SDS011;46574;52.818;6.516;2023-08-07T02:31:45;5.20;;;2.72;;
60722;SDS011;46574;52.818;6.516;2023-08-07T02:34:11;7.82;;;2.80;;
60722;SDS011;46574;52.818;6.516;2023-08-07T02:36:37;7.75;;;2.72;;
60722;SDS011;46574;52.818;6.516;2023-08-07T02:39:03;9.05;;;2.53;;
60722;SDS011;46574;52.818;6.516;2023-08-07T02:41:29;6.00;;;2.38;;
60722;SDS011;46574;52.818;6.516;2023-08-07T02:43:56;8.13;;;2.47;;
60722;SDS011;46574;52.818;6.516;2023-08-07T02:46:22;6.45;;;2.38;;
60722;SDS011;46574;52.818;6.516;2023-08-07T02:48:48;7.60;;;2.97;;
60722;SDS011;46574;52.818;6.516;2023-08-07T02:51:13;8.27;;;2.78;;
60722;SDS011;46574;52.818;6.516;2023-08-07T02:53:39;6.70;;;2.45;;
60722;SDS011;46574;52.818;6.516;2023-08-07T02:56:05;6.43;;;2.55;;
60722;SDS011;46574;52.818;6.516;2023-08-07T02:58:30;7.63;;;2.47;;
60722;SDS011;46574;52.818;6.516;2023-08-07T03:00:56;8.60;;;2.60;;
60722;SDS011;46574;52.818;6.516;2023-08-07T03:03:21;7.03;;;2.40;;
60722;SDS011;46574;52.818;6.516;2023-08-07T03:05:51;7.55;;;2.42;;
60722;SDS011;46574;52.818;6.516;2023-08-07T03:08:17;7.88;;;2.30;;
60722;SDS011;46574;52.818;6.516;2023-08-07T03:10:49;5.90;;;2.70;;
60722;SDS011;46574;52.818;6.516;2023-08-07T03:13:17;8.25;;;2.55;;
60722;SDS011;46574;52.818;6.516;2023-08-07T03:15:42;5.85;;;2.47;;
60722;SDS011;46574;52.818;6.516;2023-08-07T03:18:08;6.90;;;2.47;;
60722;SDS011;46574;52.818;6.516;2023-08-07T03:20:36;8.10;;;2.70;;
60722;SDS011;46574;52.818;6.516;2023-08-07T03:23:02;6.15;;;1.75;;
60722;SDS011;46574;52.818;6.516;2023-08-07T03:25:27;10.20;;;2.67;;
60722;SDS011;46574;52.818;6.516;2023-08-07T03:27:53;10.55;;;3.17;;
60722;SDS011;46574;52.818;6.516;2023-08-07T03:30:18;11.68;;;2.65;;
60722;SDS011;46574;52.818;6.516;2023-08-07T03:32:44;9.45;;;3.05;;
60722;SDS011;46574;52.818;6.516;2023-08-07T03:35:10;5.38;;;2.72;;
60722;SDS011;46574;52.818;6.516;2023-08-07T03:37:36;12.27;;;2.92;;
60722;SDS011;46574;52.818;6.516;2023-08-07T03:40:02;6.13;;;2.55;;
60722;SDS011;46574;52.818;6.516;2023-08-07T03:42:27;7.38;;;2.38;;
60722;SDS011;46574;52.818;6.516;2023-08-07T03:44:53;10.75;;;2.97;;
60722;SDS011;46574;52.818;6.516;2023-08-07T03:47:19;10.13;;;2.80;;
60722;SDS011;46574;52.818;6.516;2023-08-07T03:49:44;10.65;;;2.97;;
60722;SDS011;46574;52.818;6.516;2023-08-07T03:52:10;10.23;;;2.70;;
60722;SDS011;46574;52.818;6.516;2023-08-07T03:54:36;8.25;;;2.75;;
60722;SDS011;46574;52.818;6.516;2023-08-07T03:57:01;6.45;;;2.70;;
60722;SDS011;46574;52.818;6.516;2023-08-07T03:59:27;5.75;;;2.95;;
60722;SDS011;46574;52.818;6.516;2023-08-07T04:01:53;10.88;;;2.90;;
60722;SDS011;46574;52.818;6.516;2023-08-07T04:04:18;11.88;;;3.13;;
60722;SDS011;46574;52.818;6.516;2023-08-07T04:06:44;8.75;;;2.83;;
60722;SDS011;46574;52.818;6.516;2023-08-07T04:09:10;9.10;;;3.15;;
60722;SDS011;46574;52.818;6.516;2023-08-07T04:11:35;9.70;;;3.20;;
60722;SDS011;46574;52.818;6.516;2023-08-07T04:14:01;6.05;;;2.63;;
60722;SDS011;46574;52.818;6.516;2023-08-07T04:16:29;5.97;;;2.95;;
60722;SDS011;46574;52.818;6.516;2023-08-07T04:18:56;9.98;;;3.03;;
60722;SDS011;46574;52.818;6.516;2023-08-07T04:21:22;8.65;;;2.92;;
60722;SDS011;46574;52.818;6.516;2023-08-07T04:23:48;5.25;;;2.70;;
60722;SDS011;46574;52.818;6.516;2023-08-07T04:26:13;5.10;;;2.63;;
60722;SDS011;46574;52.818;6.516;2023-08-07T04:28:39;7.72;;;3.20;;
60722;SDS011;46574;52.818;6.516;2023-08-07T04:31:05;6.20;;;2.65;;
60722;SDS011;46574;52.818;6.516;2023-08-07T04:33:31;6.40;;;3.22;;
60722;SDS011;46574;52.818;6.516;2023-08-07T04:35:56;7.53;;;3.35;;
60722;SDS011;46574;52.818;6.516;2023-08-07T04:38:22;9.63;;;3.40;;
60722;SDS011;46574;52.818;6.516;2023-08-07T04:40:48;6.50;;;3.38;;
60722;SDS011;46574;52.818;6.516;2023-08-07T04:43:15;7.57;;;3.45;;
60722;SDS011;46574;52.818;6.516;2023-08-07T04:45:42;8.05;;;3.50;;
60722;SDS011;46574;52.818;6.516;2023-08-07T04:48:10;6.63;;;3.70;;
60722;SDS011;46574;52.818;6.516;2023-08-07T04:50:36;7.63;;;3.15;;
60722;SDS011;46574;52.818;6.516;2023-08-07T04:53:04;6.38;;;3.10;;
60722;SDS011;46574;52.818;6.516;2023-08-07T04:55:30;7.78;;;3.30;;
60722;SDS011;46574;52.818;6.516;2023-08-07T04:57:56;7.65;;;3.55;;
60722;SDS011;46574;52.818;6.516;2023-08-07T05:00:22;9.30;;;3.63;;
60722;SDS011;46574;52.818;6.516;2023-08-07T05:02:48;10.63;;;4.05;;
60722;SDS011;46574;52.818;6.516;2023-08-07T05:05:14;7.55;;;3.53;;
60722;SDS011;46574;52.818;6.516;2023-08-07T05:07:41;8.98;;;4.25;;
60722;SDS011;46574;52.818;6.516;2023-08-07T05:10:06;11.38;;;3.95;;
60722;SDS011;46574;52.818;6.516;2023-08-07T05:12:33;10.40;;;4.05;;
60722;SDS011;46574;52.818;6.516;2023-08-07T05:14:59;11.70;;;3.83;;
60722;SDS011;46574;52.818;6.516;2023-08-07T05:17:25;9.07;;;3.50;;
60722;SDS011;46574;52.818;6.516;2023-08-07T05:19:50;11.32;;;3.50;;
60722;SDS011;46574;52.818;6.516;2023-08-07T05:22:16;8.82;;;3.85;;
60722;SDS011;46574;52.818;6.516;2023-08-07T05:24:42;7.75;;;3.55;;
60722;SDS011;46574;52.818;6.516;2023-08-07T05:27:10;7.40;;;3.80;;
60722;SDS011;46574;52.818;6.516;2023-08-07T05:29:36;9.80;;;3.88;;
60722;SDS011;46574;52.818;6.516;2023-08-07T05:32:11;7.07;;;3.22;;
60722;SDS011;46574;52.818;6.516;2023-08-07T05:34:38;11.55;;;3.53;;
60722;SDS011;46574;52.818;6.516;2023-08-07T05:37:04;6.75;;;3.22;;
60722;SDS011;46574;52.818;6.516;2023-08-07T05:39:30;8.15;;;3.50;;
60722;SDS011;46574;52.818;6.516;2023-08-07T05:41:55;8.55;;;3.65;;
60722;SDS011;46574;52.818;6.516;2023-08-07T05:44:23;8.23;;;3.80;;
60722;SDS011;46574;52.818;6.516;2023-08-07T05:46:49;6.35;;;3.70;;
60722;SDS011;46574;52.818;6.516;2023-08-07T05:49:14;7.70;;;3.58;;
60722;SDS011;46574;52.818;6.516;2023-08-07T05:51:40;10.00;;;3.88;;
60722;SDS011;46574;52.818;6.516;2023-08-07T05:54:06;7.82;;;3.60;;
60722;SDS011;46574;52.818;6.516;2023-08-07T05:56:32;9.00;;;4.15;;
60722;SDS011;46574;52.818;6.516;2023-08-07T05:58:58;8.25;;;4.25;;
60722;SDS011;46574;52.818;6.516;2023-08-07T06:01:23;10.15;;;4.43;;
60722;SDS011;46574;52.818;6.516;2023-08-07T06:03:55;9.50;;;4.60;;
60722;SDS011;46574;52.818;6.516;2023-08-07T06:06:21;11.50;;;4.22;;
60722;SDS011;46574;52.818;6.516;2023-08-07T06:08:47;14.13;;;4.50;;
60722;SDS011;46574;52.818;6.516;2023-08-07T06:11:12;15.10;;;4.97;;
60722;SDS011;46574;52.818;6.516;2023-08-07T06:13:39;13.80;;;4.00;;
60722;SDS011;46574;52.818;6.516;2023-08-07T06:16:05;11.57;;;4.82;;
60722;SDS011;46574;52.818;6.516;2023-08-07T06:18:31;13.27;;;4.72;;
60722;SDS011;46574;52.818;6.516;2023-08-07T06:20:57;12.60;;;4.38;;
60722;SDS011;46574;52.818;6.516;2023-08-07T06:23:22;9.85;;;4.95;;
60722;SDS011;46574;52.818;6.516;2023-08-07T06:25:48;13.63;;;4.82;;
60722;SDS011;46574;52.818;6.516;2023-08-07T06:28:14;11.35;;;4.80;;
60722;SDS011;46574;52.818;6.516;2023-08-07T06:30:40;13.30;;;4.63;;
60722;SDS011;46574;52.818;6.516;2023-08-07T06:33:11;14.63;;;4.32;;
60722;SDS011;46574;52.818;6.516;2023-08-07T06:35:37;13.55;;;4.07;;
60722;SDS011;46574;52.818;6.516;2023-08-07T06:38:04;9.02;;;4.03;;
60722;SDS011;46574;52.818;6.516;2023-08-07T06:40:30;7.30;;;3.60;;
60722;SDS011;46574;52.818;6.516;2023-08-07T06:42:56;9.60;;;3.80;;
60722;SDS011;46574;52.818;6.516;2023-08-07T06:45:23;8.30;;;3.33;;
60722;SDS011;46574;52.818;6.516;2023-08-07T06:47:49;6.55;;;3.30;;
60722;SDS011;46574;52.818;6.516;2023-08-07T06:50:15;7.70;;;3.20;;
60722;SDS011;46574;52.818;6.516;2023-08-07T06:52:41;7.53;;;3.70;;
60722;SDS011;46574;52.818;6.516;2023-08-07T06:55:06;10.20;;;4.15;;
60722;SDS011;46574;52.818;6.516;2023-08-07T06:57:34;7.78;;;3.63;;
60722;SDS011;46574;52.818;6.516;2023-08-07T06:59:59;10.65;;;3.78;;
60722;SDS011;46574;52.818;6.516;2023-08-07T07:02:25;10.18;;;4.00;;
60722;SDS011;46574;52.818;6.516;2023-08-07T07:04:51;6.55;;;3.80;;
60722;SDS011;46574;52.818;6.516;2023-08-07T07:07:17;12.18;;;3.40;;
60722;SDS011;46574;52.818;6.516;2023-08-07T07:09:43;9.25;;;3.88;;
60722;SDS011;46574;52.818;6.516;2023-08-07T07:12:10;10.00;;;4.07;;
60722;SDS011;46574;52.818;6.516;2023-08-07T07:14:36;11.75;;;4.05;;
60722;SDS011;46574;52.818;6.516;2023-08-07T07:17:01;12.05;;;4.25;;
60722;SDS011;46574;52.818;6.516;2023-08-07T07:19:27;10.65;;;4.57;;
60722;SDS011;46574;52.818;6.516;2023-08-07T07:21:54;10.60;;;4.57;;
60722;SDS011;46574;52.818;6.516;2023-08-07T07:24:21;9.20;;;4.18;;
60722;SDS011;46574;52.818;6.516;2023-08-07T07:26:48;8.48;;;4.15;;
60722;SDS011;46574;52.818;6.516;2023-08-07T07:29:19;7.43;;;3.88;;
60722;SDS011;46574;52.818;6.516;2023-08-07T07:31:50;9.55;;;4.25;;
60722;SDS011;46574;52.818;6.516;2023-08-07T07:34:15;11.60;;;3.75;;
60722;SDS011;46574;52.818;6.516;2023-08-07T07:36:46;9.65;;;3.97;;
60722;SDS011;46574;52.818;6.516;2023-08-07T07:39:13;9.52;;;3.30;;
60722;SDS011;46574;52.818;6.516;2023-08-07T07:41:38;7.90;;;3.72;;
60722;SDS011;46574;52.818;6.516;2023-08-07T07:44:04;8.55;;;3.00;;
60722;SDS011;46574;52.818;6.516;2023-08-07T07:46:30;7.40;;;3.10;;
60722;SDS011;46574;52.818;6.516;2023-08-07T07:48:58;8.75;;;2.75;;
60722;SDS011;46574;52.818;6.516;2023-08-07T07:51:24;5.78;;;2.70;;
60722;SDS011;46574;52.818;6.516;2023-08-07T07:53:49;6.55;;;2.70;;
60722;SDS011;46574;52.818;6.516;2023-08-07T07:56:16;8.32;;;3.13;;
60722;SDS011;46574;52.818;6.516;2023-08-07T07:58:43;5.45;;;2.45;;
60722;SDS011;46574;52.818;6.516;2023-08-07T08:01:09;5.65;;;2.40;;
60722;SDS011;46574;52.818;6.516;2023-08-07T08:03:35;4.60;;;2.15;;
60722;SDS011;46574;52.818;6.516;2023-08-07T08:06:00;5.90;;;2.17;;
60722;SDS011;46574;52.818;6.516;2023-08-07T08:08:29;5.43;;;1.90;;
60722;SDS011;46574;52.818;6.516;2023-08-07T08:10:55;3.83;;;1.83;;
60722;SDS011;46574;52.818;6.516;2023-08-07T08:13:21;4.20;;;2.22;;
60722;SDS011;46574;52.818;6.516;2023-08-07T08:15:51;3.72;;;2.00;;
60722;SDS011;46574;52.818;6.516;2023-08-07T08:18:17;4.20;;;2.05;;
60722;SDS011;46574;52.818;6.516;2023-08-07T08:20:42;6.13;;;2.88;;
60722;SDS011;46574;52.818;6.516;2023-08-07T08:23:08;6.82;;;2.53;;
60722;SDS011;46574;52.818;6.516;2023-08-07T08:25:33;6.90;;;2.40;;
60722;SDS011;46574;52.818;6.516;2023-08-07T08:27:59;7.63;;;2.40;;
60722;SDS011;46574;52.818;6.516;2023-08-07T08:30:25;5.50;;;2.63;;
60722;SDS011;46574;52.818;6.516;2023-08-07T08:32:51;7.30;;;2.70;;
60722;SDS011;46574;52.818;6.516;2023-08-07T08:35:17;6.47;;;2.90;;
60722;SDS011;46574;52.818;6.516;2023-08-07T08:37:42;7.30;;;2.92;;
60722;SDS011;46574;52.818;6.516;2023-08-07T08:40:08;7.93;;;2.80;;
60722;SDS011;46574;52.818;6.516;2023-08-07T08:42:39;4.68;;;2.60;;
60722;SDS011;46574;52.818;6.516;2023-08-07T08:45:06;5.13;;;2.50;;
60722;SDS011;46574;52.818;6.516;2023-08-07T08:47:35;7.15;;;2.63;;
60722;SDS011;46574;52.818;6.516;2023-08-07T08:50:03;5.07;;;2.63;;
60722;SDS011;46574;52.818;6.516;2023-08-07T08:52:32;7.65;;;3.08;;
60722;SDS011;46574;52.818;6.516;2023-08-07T08:54:57;5.60;;;2.97;;
60722;SDS011;46574;52.818;6.516;2023-08-07T08:57:27;8.68;;;3.13;;
60722;SDS011;46574;52.818;6.516;2023-08-07T08:59:54;7.45;;;3.42;;
60722;SDS011;46574;52.818;6.516;2023-08-07T09:02:22;7.97;;;3.60;;
60722;SDS011;46574;52.818;6.516;2023-08-07T09:04:48;9.05;;;3.25;;
60722;SDS011;46574;52.818;6.516;2023-08-07T09:07:15;7.93;;;3.30;;
60722;SDS011;46574;52.818;6.516;2023-08-07T09:09:43;5.05;;;3.10;;
60722;SDS011;46574;52.818;6.516;2023-08-07T09:12:13;12.15;;;3.83;;
60722;SDS011;46574;52.818;6.516;2023-08-07T09:14:44;9.45;;;3.38;;
60722;SDS011;46574;52.818;6.516;2023-08-07T09:17:12;8.48;;;3.40;;
60722;SDS011;46574;52.818;6.516;2023-08-07T09:19:39;8.38;;;3.60;;
60722;SDS011;46574;52.818;6.516;2023-08-07T09:22:05;7.25;;;3.17;;
60722;SDS011;46574;52.818;6.516;2023-08-07T09:24:32;8.65;;;3.28;;
60722;SDS011;46574;52.818;6.516;2023-08-07T09:26:57;8.32;;;3.17;;
60722;SDS011;46574;52.818;6.516;2023-08-07T09:29:23;9.98;;;3.15;;
60722;SDS011;46574;52.818;6.516;2023-08-07T09:31:49;6.60;;;3.20;;
60722;SDS011;46574;52.818;6.516;2023-08-07T09:34:15;5.70;;;2.50;;
60722;SDS011;46574;52.818;6.516;2023-08-07T09:36:45;6.18;;;2.78;;
60722;SDS011;46574;52.818;6.516;2023-08-07T09:39:11;7.93;;;2.97;;
60722;SDS011;46574;52.818;6.516;2023-08-07T09:41:36;5.85;;;3.17;;
60722;SDS011;46574;52.818;6.516;2023-08-07T09:44:09;5.22;;;2.35;;
60722;SDS011;46574;52.818;6.516;2023-08-07T09:46:45;5.15;;;2.88;;
60722;SDS011;46574;52.818;6.516;2023-08-07T09:49:10;5.80;;;2.30;;
60722;SDS011;46574;52.818;6.516;2023-08-07T09:51:46;7.38;;;2.20;;
60722;SDS011;46574;52.818;6.516;2023-08-07T09:54:12;6.28;;;2.38;;
60722;SDS011;46574;52.818;6.516;2023-08-07T09:56:41;6.53;;;2.70;;
60722;SDS011;46574;52.818;6.516;2023-08-07T09:59:08;5.60;;;2.60;;
60722;SDS011;46574;52.818;6.516;2023-08-07T10:01:36;4.78;;;2.50;;
60722;SDS011;46574;52.818;6.516;2023-08-07T10:04:04;5.30;;;2.40;;
60722;SDS011;46574;52.818;6.516;2023-08-07T10:06:30;5.80;;;2.90;;
60722;SDS011;46574;52.818;6.516;2023-08-07T10:08:56;7.28;;;2.70;;
60722;SDS011;46574;52.818;6.516;2023-08-07T10:11:24;6.03;;;2.63;;
60722;SDS011;46574;52.818;6.516;2023-08-07T10:13:50;6.18;;;2.40;;
60722;SDS011;46574;52.818;6.516;2023-08-07T10:16:16;6.57;;;2.60;;
60722;SDS011;46574;52.818;6.516;2023-08-07T10:18:42;4.95;;;2.17;;
60722;SDS011;46574;52.818;6.516;2023-08-07T10:21:07;7.05;;;2.72;;
60722;SDS011;46574;52.818;6.516;2023-08-07T10:23:36;6.72;;;2.45;;
60722;SDS011;46574;52.818;6.516;2023-08-07T10:26:04;6.35;;;2.47;;
60722;SDS011;46574;52.818;6.516;2023-08-07T10:28:31;4.15;;;2.20;;
60722;SDS011;46574;52.818;6.516;2023-08-07T10:31:02;5.25;;;2.30;;
60722;SDS011;46574;52.818;6.516;2023-08-07T10:33:30;4.93;;;2.30;;
60722;SDS011;46574;52.818;6.516;2023-08-07T10:35:57;3.17;;;2.20;;
60722;SDS011;46574;52.818;6.516;2023-08-07T10:38:24;4.70;;;2.85;;
60722;SDS011;46574;52.818;6.516;2023-08-07T10:43:39;5.82;;;2.20;;
60722;SDS011;46574;52.818;6.516;2023-08-07T10:46:06;5.70;;;2.38;;
60722;SDS011;46574;52.818;6.516;2023-08-07T10:48:45;7.38;;;2.10;;
60722;SDS011;46574;52.818;6.516;2023-08-07T10:51:13;4.35;;;2.10;;
60722;SDS011;46574;52.818;6.516;2023-08-07T10:53:41;6.90;;;2.15;;
60722;SDS011;46574;52.818;6.516;2023-08-07T10:59:07;5.50;;;2.10;;
60722;SDS011;46574;52.818;6.516;2023-08-07T11:04:06;8.80;;;3.05;;
60722;SDS011;46574;52.818;6.516;2023-08-07T11:06:36;5.30;;;2.42;;
60722;SDS011;46574;52.818;6.516;2023-08-07T11:09:03;4.88;;;2.28;;
60722;SDS011;46574;52.818;6.516;2023-08-07T11:14:15;3.97;;;2.15;;
60722;SDS011;46574;52.818;6.516;2023-08-07T11:16:42;5.47;;;2.50;;
60722;SDS011;46574;52.818;6.516;2023-08-07T11:19:09;5.78;;;2.22;;
60722;SDS011;46574;52.818;6.516;2023-08-07T11:21:36;3.83;;;2.00;;
60722;SDS011;46574;52.818;6.516;2023-08-07T11:24:02;8.18;;;2.55;;
60722;SDS011;46574;52.818;6.516;2023-08-07T11:26:28;4.15;;;2.00;;
60722;SDS011;46574;52.818;6.516;2023-08-07T11:28:54;4.78;;;2.15;;
60722;SDS011;46574;52.818;6.516;2023-08-07T11:31:21;4.88;;;1.80;;
60722;SDS011;46574;52.818;6.516;2023-08-07T11:33:47;4.95;;;1.85;;
60722;SDS011;46574;52.818;6.516;2023-08-07T11:36:16;5.35;;;1.85;;
60722;SDS011;46574;52.818;6.516;2023-08-07T11:38:43;4.78;;;1.67;;
60722;SDS011;46574;52.818;6.516;2023-08-07T11:41:10;4.18;;;2.08;;
60722;SDS011;46574;52.818;6.516;2023-08-07T11:43:37;2.63;;;1.50;;
60722;SDS011;46574;52.818;6.516;2023-08-07T11:46:05;2.90;;;1.55;;
60722;SDS011;46574;52.818;6.516;2023-08-07T11:48:33;2.97;;;1.65;;
60722;SDS011;46574;52.818;6.516;2023-08-07T11:53:28;5.13;;;1.83;;
60722;SDS011;46574;52.818;6.516;2023-08-07T11:55:55;3.47;;;1.85;;
60722;SDS011;46574;52.818;6.516;2023-08-07T11:58:22;3.47;;;1.83;;
60722;SDS011;46574;52.818;6.516;2023-08-07T12:00:49;4.22;;;2.20;;
60722;SDS011;46574;52.818;6.516;2023-08-07T12:03:25;5.47;;;2.00;;
60722;SDS011;46574;52.818;6.516;2023-08-07T12:05:58;6.97;;;2.45;;
60722;SDS011;46574;52.818;6.516;2023-08-07T12:11:09;5.45;;;1.95;;
60722;SDS011;46574;52.818;6.516;2023-08-07T12:13:40;6.82;;;2.00;;
60722;SDS011;46574;52.818;6.516;2023-08-07T12:16:07;5.03;;;1.90;;
60722;SDS011;46574;52.818;6.516;2023-08-07T12:18:33;5.30;;;2.00;;
60722;SDS011;46574;52.818;6.516;2023-08-07T12:21:04;4.15;;;2.10;;
60722;SDS011;46574;52.818;6.516;2023-08-07T12:23:33;4.80;;;2.35;;
60722;SDS011;46574;52.818;6.516;2023-08-07T12:25:59;3.70;;;2.00;;
60722;SDS011;46574;52.818;6.516;2023-08-07T12:28:25;4.30;;;1.83;;
60722;SDS011;46574;52.818;6.516;2023-08-07T12:30:51;6.20;;;1.95;;
60722;SDS011;46574;52.818;6.516;2023-08-07T12:33:17;4.97;;;1.98;;
60722;SDS011;46574;52.818;6.516;2023-08-07T12:35:43;5.30;;;2.17;;
60722;SDS011;46574;52.818;6.516;2023-08-07T12:38:09;5.30;;;2.50;;
60722;SDS011;46574;52.818;6.516;2023-08-07T12:40:35;5.15;;;1.80;;
60722;SDS011;46574;52.818;6.516;2023-08-07T12:43:01;5.32;;;2.10;;
60722;SDS011;46574;52.818;6.516;2023-08-07T12:45:27;4.65;;;2.33;;
60722;SDS011;46574;52.818;6.516;2023-08-07T12:47:53;5.45;;;2.50;;
60722;SDS011;46574;52.818;6.516;2023-08-07T12:50:19;5.63;;;1.92;;
60722;SDS011;46574;52.818;6.516;2023-08-07T12:52:44;4.53;;;2.08;;
60722;SDS011;46574;52.818;6.516;2023-08-07T12:55:10;4.63;;;2.35;;
60722;SDS011;46574;52.818;6.516;2023-08-07T12:57:37;2.75;;;1.80;;
60722;SDS011;46574;52.818;6.516;2023-08-07T13:00:05;4.10;;;2.33;;
60722;SDS011;46574;52.818;6.516;2023-08-07T13:02:33;5.33;;;2.53;;
60722;SDS011;46574;52.818;6.516;2023-08-07T13:04:58;6.32;;;3.33;;
60722;SDS011;46574;52.818;6.516;2023-08-07T13:07:24;3.95;;;2.10;;
60722;SDS011;46574;52.818;6.516;2023-08-07T13:09:50;3.65;;;1.90;;
60722;SDS011;46574;52.818;6.516;2023-08-07T13:12:16;3.78;;;1.90;;
60722;SDS011;46574;52.818;6.516;2023-08-07T13:14:41;3.88;;;2.10;;
60722;SDS011;46574;52.818;6.516;2023-08-07T13:17:07;5.38;;;2.30;;
60722;SDS011;46574;52.818;6.516;2023-08-07T13:19:33;3.22;;;2.38;;
60722;SDS011;46574;52.818;6.516;2023-08-07T13:21:58;4.85;;;2.05;;
60722;SDS011;46574;52.818;6.516;2023-08-07T13:24:24;3.80;;;2.45;;
60722;SDS011;46574;52.818;6.516;2023-08-07T13:26:49;3.88;;;2.08;;
60722;SDS011;46574;52.818;6.516;2023-08-07T13:29:15;5.28;;;2.65;;
60722;SDS011;46574;52.818;6.516;2023-08-07T13:31:41;5.82;;;2.30;;
60722;SDS011;46574;52.818;6.516;2023-08-07T13:34:09;6.15;;;2.85;;
60722;SDS011;46574;52.818;6.516;2023-08-07T13:36:36;5.95;;;2.90;;
60722;SDS011;46574;52.818;6.516;2023-08-07T13:39:05;7.70;;;3.53;;
60722;SDS011;46574;52.818;6.516;2023-08-07T13:41:31;5.38;;;2.60;;
60722;SDS011;46574;52.818;6.516;2023-08-07T13:43:58;5.72;;;2.80;;
60722;SDS011;46574;52.818;6.516;2023-08-07T13:46:23;5.20;;;2.63;;
60722;SDS011;46574;52.818;6.516;2023-08-07T13:48:50;6.97;;;3.10;;
60722;SDS011;46574;52.818;6.516;2023-08-07T13:51:15;4.60;;;2.55;;
60722;SDS011;46574;52.818;6.516;2023-08-07T13:53:44;4.70;;;2.90;;
60722;SDS011;46574;52.818;6.516;2023-08-07T13:56:10;4.65;;;3.00;;
60722;SDS011;46574;52.818;6.516;2023-08-07T13:58:41;7.00;;;3.15;;
60722;SDS011;46574;52.818;6.516;2023-08-07T14:01:07;7.57;;;2.95;;
60722;SDS011;46574;52.818;6.516;2023-08-07T14:03:33;6.22;;;2.95;;
60722;SDS011;46574;52.818;6.516;2023-08-07T14:05:59;4.85;;;2.95;;
60722;SDS011;46574;52.818;6.516;2023-08-07T14:08:25;6.32;;;3.45;;
60722;SDS011;46574;52.818;6.516;2023-08-07T14:10:51;7.40;;;3.65;;
60722;SDS011;46574;52.818;6.516;2023-08-07T14:13:17;6.30;;;3.42;;
60722;SDS011;46574;52.818;6.516;2023-08-07T14:15:43;5.47;;;2.80;;
60722;SDS011;46574;52.818;6.516;2023-08-07T14:18:08;5.95;;;3.03;;
60722;SDS011;46574;52.818;6.516;2023-08-07T14:20:36;7.63;;;3.28;;
60722;SDS011;46574;52.818;6.516;2023-08-07T14:23:02;7.70;;;2.85;;
60722;SDS011;46574;52.818;6.516;2023-08-07T14:25:28;7.82;;;3.30;;
60722;SDS011;46574;52.818;6.516;2023-08-07T14:27:53;5.53;;;2.90;;
60722;SDS011;46574;52.818;6.516;2023-08-07T14:30:19;6.82;;;3.05;;
60722;SDS011;46574;52.818;6.516;2023-08-07T14:32:45;6.43;;;2.58;;
60722;SDS011;46574;52.818;6.516;2023-08-07T14:35:12;5.60;;;2.85;;
60722;SDS011;46574;52.818;6.516;2023-08-07T14:37:41;7.97;;;2.95;;
60722;SDS011;46574;52.818;6.516;2023-08-07T14:40:07;5.15;;;2.20;;
60722;SDS011;46574;52.818;6.516;2023-08-07T14:42:33;6.10;;;3.22;;
60722;SDS011;46574;52.818;6.516;2023-08-07T14:44:58;5.82;;;2.38;;
60722;SDS011;46574;52.818;6.516;2023-08-07T14:47:24;3.28;;;2.30;;
60722;SDS011;46574;52.818;6.516;2023-08-07T14:49:52;3.78;;;2.35;;
60722;SDS011;46574;52.818;6.516;2023-08-07T14:52:17;4.70;;;3.30;;
60722;SDS011;46574;52.818;6.516;2023-08-07T14:54:43;7.32;;;2.97;;
60722;SDS011;46574;52.818;6.516;2023-08-07T14:57:09;5.97;;;2.65;;
60722;SDS011;46574;52.818;6.516;2023-08-07T14:59:35;5.50;;;2.60;;
60722;SDS011;46574;52.818;6.516;2023-08-07T15:02:00;4.97;;;2.75;;
60722;SDS011;46574;52.818;6.516;2023-08-07T15:04:26;4.35;;;2.70;;
60722;SDS011;46574;52.818;6.516;2023-08-07T15:06:52;7.07;;;2.78;;